createdAt,value
2022-08-09T00:00:11.160Z,7.50
2022-08-09T00:02:47.325Z,4.20
2022-08-09T00:06:18.308Z,4.57
2022-08-09T00:08:31.951Z,6.22
2022-08-09T00:11:06.064Z,4.40
2022-08-09T00:13:50.292Z,4.55
2022-08-09T00:16:26.389Z,4.82
2022-08-09T00:19:09.229Z,4.88
2022-08-09T00:21:38.913Z,6.70
2022-08-09T00:24:24.820Z,4.68
2022-08-09T00:26:55.504Z,8.70
2022-08-09T00:29:39.639Z,5.78
2022-08-09T00:32:26.793Z,6.65
2022-08-09T00:35:03.408Z,7.63
2022-08-09T00:37:32.520Z,16.10
2022-08-09T00:40:10.247Z,8.95
2022-08-09T00:44:10.556Z,7.18
2022-08-09T00:45:34.749Z,7.57
2022-08-09T00:48:04.019Z,6.03
2022-08-09T00:50:37.775Z,5.70
2022-08-09T00:53:10.175Z,6.75
2022-08-09T00:56:04.420Z,8.00
2022-08-09T00:58:27.662Z,11.18
2022-08-09T01:00:57.031Z,12.55
2022-08-09T01:03:45.617Z,6.32
2022-08-09T01:06:20.987Z,10.30
2022-08-09T01:09:11.014Z,9.75
2022-08-09T01:11:55.617Z,11.43
2022-08-09T01:14:37.368Z,6.88
2022-08-09T01:17:12.323Z,8.10
2022-08-09T01:20:02.721Z,6.20
2022-08-09T01:22:46.547Z,7.05
2022-08-09T01:25:25.314Z,11.07
2022-08-09T01:27:54.463Z,9.85
2022-08-09T01:30:28.749Z,9.30
2022-08-09T01:33:10.092Z,9.52
2022-08-09T01:35:59.812Z,7.68
2022-08-09T01:38:31.757Z,7.80
2022-08-09T01:41:07.073Z,11.10
2022-08-09T01:43:48.025Z,18.02
2022-08-09T01:46:26.535Z,7.28
2022-08-09T01:48:59.939Z,6.72
2022-08-09T01:51:44.638Z,7.38
2022-08-09T01:54:33.551Z,9.90
2022-08-09T01:57:08.129Z,10.85
2022-08-09T01:59:50.781Z,6.38
2022-08-09T02:02:31.035Z,7.00
2022-08-09T02:05:05.466Z,6.07
2022-08-09T02:08:35.960Z,9.15
2022-08-09T02:10:51.146Z,10.50
2022-08-09T02:13:22.168Z,6.03
2022-08-09T02:15:56.401Z,7.65
2022-08-09T02:18:26.941Z,6.35
2022-08-09T02:21:09.193Z,10.90
2022-08-09T02:23:43.244Z,5.57
2022-08-09T02:26:26.834Z,5.75
2022-08-09T02:29:06.758Z,8.75
2022-08-09T02:31:39.254Z,9.35
2022-08-09T02:34:40.400Z,7.22
2022-08-09T02:37:06.789Z,10.00
2022-08-09T02:39:45.104Z,6.47
2022-08-09T02:42:24.863Z,9.90
2022-08-09T02:45:08.505Z,8.38
2022-08-09T02:47:58.102Z,10.32
2022-08-09T02:50:38.356Z,10.35
2022-08-09T02:53:17.402Z,13.25
2022-08-09T02:55:59.272Z,8.13
2022-08-09T02:58:35.807Z,6.70
2022-08-09T03:01:11.336Z,7.32
2022-08-09T03:04:17.873Z,8.23
2022-08-09T03:06:39.257Z,10.02
2022-08-09T03:09:12.509Z,5.78
2022-08-09T03:12:06.031Z,6.78
2022-08-09T03:14:32.117Z,11.80
2022-08-09T03:17:01.717Z,6.97
2022-08-09T03:19:59.384Z,7.80
2022-08-09T03:22:25.738Z,11.98
2022-08-09T03:25:25.870Z,7.25
2022-08-09T03:27:59.410Z,7.00
2022-08-09T03:30:30.056Z,5.45
2022-08-09T03:33:18.574Z,10.70
2022-08-09T03:36:12.430Z,9.82
2022-08-09T03:38:41.774Z,8.45
2022-08-09T03:41:16.064Z,7.28
2022-08-09T03:44:03.831Z,11.70
2022-08-09T03:46:33.600Z,9.45
2022-08-09T03:49:08.012Z,8.30
2022-08-09T03:51:58.175Z,9.32
2022-08-09T03:54:32.148Z,6.93
2022-08-09T03:57:04.538Z,9.20
2022-08-09T03:59:43.187Z,8.00
2022-08-09T04:02:28.229Z,8.60
2022-08-09T04:05:05.809Z,10.70
2022-08-09T04:07:53.436Z,7.53
2022-08-09T04:10:28.823Z,15.68
2022-08-09T04:13:01.323Z,6.90
2022-08-09T04:16:17.327Z,10.57
2022-08-09T04:18:21.209Z,8.02
2022-08-09T04:20:49.382Z,6.25
2022-08-09T04:23:17.767Z,10.52
2022-08-09T04:25:51.678Z,8.95
2022-08-09T04:28:33.814Z,7.65
2022-08-09T04:31:09.865Z,12.13
2022-08-09T04:33:51.539Z,15.20
2022-08-09T04:36:23.435Z,10.90
2022-08-09T04:38:53.339Z,13.48
2022-08-09T04:41:23.810Z,15.18
2022-08-09T04:44:06.984Z,10.75
2022-08-09T04:46:58.676Z,14.13
2022-08-09T04:49:52.574Z,13.43
2022-08-09T04:52:27.710Z,15.48
2022-08-09T04:55:00.250Z,14.10
2022-08-09T04:57:54.328Z,15.85
2022-08-09T05:00:17.181Z,18.65
2022-08-09T05:02:51.896Z,11.32
2022-08-09T05:05:32.279Z,15.68
2022-08-09T05:08:08.833Z,15.15
2022-08-09T05:10:36.773Z,14.75
2022-08-09T05:13:04.479Z,18.67
2022-08-09T05:15:43.190Z,21.23
2022-08-09T05:18:39.732Z,16.65
2022-08-09T05:21:20.751Z,17.52
2022-08-09T05:23:59.699Z,13.82
2022-08-09T05:26:45.582Z,10.95
2022-08-09T05:29:24.146Z,13.50
2022-08-09T05:32:00.578Z,17.48
2022-08-09T05:34:32.658Z,15.38
2022-08-09T05:37:06.047Z,16.23
2022-08-09T05:39:42.648Z,20.88
2022-08-09T05:42:17.723Z,21.88
2022-08-09T05:44:55.841Z,19.70
2022-08-09T05:47:27.324Z,19.88
2022-08-09T05:50:35.163Z,19.83
2022-08-09T05:52:53.575Z,19.63
2022-08-09T05:55:24.282Z,19.85
2022-08-09T05:57:56.627Z,22.15
2022-08-09T06:00:30.388Z,28.27
2022-08-09T06:03:03.421Z,22.38
2022-08-09T06:05:56.970Z,22.90
2022-08-09T06:08:24.334Z,20.98
2022-08-09T06:10:56.914Z,20.73
2022-08-09T06:13:25.500Z,21.45
2022-08-09T06:15:56.124Z,23.95
2022-08-09T06:18:25.433Z,24.67
2022-08-09T06:20:57.919Z,24.15
2022-08-09T06:23:58.918Z,24.00
2022-08-09T06:26:21.198Z,23.98
2022-08-09T06:28:59.287Z,24.15
2022-08-09T06:31:39.680Z,26.92
2022-08-09T06:34:19.152Z,29.23
2022-08-09T06:36:46.630Z,28.08
2022-08-09T06:39:14.786Z,28.90
2022-08-09T06:42:09.382Z,25.13
2022-08-09T06:44:33.347Z,25.33
2022-08-09T06:47:00.691Z,30.40
2022-08-09T06:50:11.364Z,24.45
2022-08-09T06:52:17.916Z,24.70
2022-08-09T06:54:45.858Z,21.52
2022-08-09T06:57:14.290Z,21.55
2022-08-09T07:00:48.977Z,25.27
2022-08-09T07:02:31.879Z,22.35
2022-08-09T07:05:00.462Z,26.35
2022-08-09T07:08:00.308Z,19.48
2022-08-09T07:10:22.520Z,20.85
2022-08-09T07:12:58.225Z,20.40
2022-08-09T07:16:39.741Z,21.65
2022-08-09T07:18:16.635Z,20.52
2022-08-09T07:20:44.894Z,19.45
2022-08-09T07:23:19.032Z,23.27
2022-08-09T07:25:52.121Z,18.85
2022-08-09T07:28:26.115Z,17.75
2022-08-09T07:30:55.758Z,19.63
2022-08-09T07:33:23.373Z,16.52
2022-08-09T07:35:54.707Z,14.55
2022-08-09T07:38:23.157Z,15.95
2022-08-09T07:41:10.034Z,21.00
2022-08-09T07:43:50.051Z,13.60
2022-08-09T07:46:25.327Z,20.10
2022-08-09T07:48:59.445Z,12.23
2022-08-09T07:52:06.085Z,18.55
2022-08-09T07:54:27.690Z,15.43
2022-08-09T07:56:58.614Z,16.23
2022-08-09T07:59:34.599Z,17.63
2022-08-09T08:02:20.256Z,9.82
2022-08-09T08:04:48.974Z,18.00
2022-08-09T08:08:06.654Z,15.70
2022-08-09T08:10:10.827Z,12.35
2022-08-09T08:12:46.378Z,10.95
2022-08-09T08:15:24.346Z,12.32
2022-08-09T08:17:58.018Z,14.40
2022-08-09T08:20:32.374Z,11.15
2022-08-09T08:23:15.974Z,11.80
2022-08-09T08:25:48.505Z,11.32
2022-08-09T08:28:31.942Z,13.73
2022-08-09T08:31:10.508Z,14.68
2022-08-09T08:33:53.372Z,11.60
2022-08-09T08:36:29.109Z,13.15
2022-08-09T08:38:57.862Z,12.23
2022-08-09T08:41:41.829Z,12.95
2022-08-09T08:44:14.722Z,10.15
2022-08-09T08:46:59.906Z,10.95
2022-08-09T08:49:38.934Z,8.38
2022-08-09T08:52:58.521Z,11.38
2022-08-09T08:55:19.139Z,11.20
2022-08-09T08:57:57.343Z,8.95
2022-08-09T09:00:34.338Z,10.98
2022-08-09T09:03:08.773Z,8.40
2022-08-09T09:06:00.679Z,14.68
2022-08-09T09:08:40.180Z,7.10
2022-08-09T09:11:17.393Z,11.73
2022-08-09T09:13:56.307Z,12.63
2022-08-09T09:16:30.476Z,8.23
2022-08-09T09:19:37.598Z,14.18
2022-08-09T09:22:11.953Z,14.98
2022-08-09T09:24:45.907Z,15.00
2022-08-09T09:28:02.998Z,7.07
2022-08-09T09:30:26.144Z,7.05
2022-08-09T09:33:16.526Z,10.38
2022-08-09T09:36:02.433Z,8.43
2022-08-09T09:38:48.955Z,8.50
2022-08-09T09:41:33.026Z,7.68
2022-08-09T09:44:27.869Z,4.60
2022-08-09T09:47:10.528Z,7.63
2022-08-09T09:50:06.918Z,5.32
2022-08-09T09:52:52.447Z,10.07
2022-08-09T09:55:32.100Z,3.00
2022-08-09T09:58:17.435Z,11.70
2022-08-09T10:00:58.939Z,7.20
2022-08-09T10:03:40.447Z,5.47
2022-08-09T10:06:12.647Z,6.15
2022-08-09T10:08:55.211Z,6.35
2022-08-09T10:12:04.395Z,3.30
2022-08-09T10:14:33.604Z,7.20
2022-08-09T10:17:40.687Z,9.63
2022-08-09T10:20:00.228Z,3.47
2022-08-09T10:22:40.236Z,5.55
2022-08-09T10:25:11.763Z,5.03
2022-08-09T10:27:57.198Z,3.58
2022-08-09T10:32:13.710Z,5.10
2022-08-09T10:34:05.282Z,4.13
2022-08-09T10:36:11.669Z,3.42
2022-08-09T10:38:56.326Z,5.60
2022-08-09T10:41:27.981Z,5.68
2022-08-09T10:43:59.743Z,10.60
2022-08-09T10:47:20.589Z,4.90
2022-08-09T10:50:30.862Z,8.90
2022-08-09T10:53:19.608Z,9.55
2022-08-09T10:55:58.235Z,11.27
2022-08-09T10:58:37.117Z,6.78
2022-08-09T11:03:11.028Z,4.18
2022-08-09T11:04:32.629Z,6.35
2022-08-09T11:07:01.156Z,6.82
2022-08-09T11:09:47.732Z,6.70
2022-08-09T11:12:29.389Z,5.07
2022-08-09T11:15:24.821Z,6.78
2022-08-09T11:18:03.765Z,14.10
2022-08-09T11:20:47.180Z,7.93
2022-08-09T11:23:23.872Z,4.75
2022-08-09T11:26:00.482Z,9.55
2022-08-09T11:28:38.826Z,8.95
2022-08-09T11:31:50.453Z,12.70
2022-08-09T11:34:42.846Z,10.70
2022-08-09T11:37:24.527Z,3.90
2022-08-09T11:40:06.567Z,5.20
2022-08-09T11:42:48.445Z,5.93
2022-08-09T11:45:21.632Z,7.35
2022-08-09T11:47:52.383Z,11.35
2022-08-09T11:50:54.953Z,7.38
2022-08-09T11:53:57.716Z,7.82
2022-08-09T11:56:02.958Z,7.10
2022-08-09T11:58:33.804Z,4.32
2022-08-09T12:01:08.891Z,8.52
2022-08-09T12:03:57.400Z,4.28
2022-08-09T12:06:32.428Z,7.90
2022-08-09T12:09:19.250Z,4.25
2022-08-09T12:12:12.148Z,7.65
2022-08-09T12:15:07.745Z,8.13
2022-08-09T12:17:34.417Z,7.55
2022-08-09T12:20:21.853Z,5.28
2022-08-09T12:22:56.181Z,8.23
2022-08-09T12:25:34.714Z,7.13
2022-08-09T12:29:15.302Z,6.38
2022-08-09T12:31:11.115Z,6.28
2022-08-09T12:33:58.931Z,4.20
2022-08-09T12:36:31.387Z,5.68
2022-08-09T12:39:00.621Z,9.00
2022-08-09T12:41:39.294Z,13.35
2022-08-09T12:44:10.175Z,4.93
2022-08-09T12:46:48.934Z,5.68
2022-08-09T12:49:18.612Z,13.90
2022-08-09T12:52:02.406Z,5.88
2022-08-09T12:56:12.013Z,6.97
2022-08-09T12:57:46.342Z,6.40
2022-08-09T13:00:40.736Z,3.97
2022-08-09T13:03:08.589Z,5.65
2022-08-09T13:06:14.650Z,5.30
2022-08-09T13:08:40.907Z,4.57
2022-08-09T13:11:22.706Z,14.80
2022-08-09T13:14:42.230Z,12.00
2022-08-09T13:16:51.342Z,3.95
2022-08-09T13:20:07.170Z,6.55
2022-08-09T13:22:37.349Z,9.07
2022-08-09T13:25:14.370Z,4.28
2022-08-09T13:27:54.712Z,3.97
2022-08-09T13:31:11.085Z,4.20
2022-08-09T13:33:23.618Z,6.40
2022-08-09T13:36:38.920Z,5.57
2022-08-09T13:38:56.556Z,8.07
2022-08-09T13:41:57.992Z,11.80
2022-08-09T13:44:17.055Z,5.80
2022-08-09T13:47:26.446Z,11.68
2022-08-09T13:49:38.057Z,7.88
2022-08-09T13:52:22.925Z,13.13
2022-08-09T13:54:59.102Z,5.53
2022-08-09T13:57:35.632Z,8.30
2022-08-09T14:00:12.574Z,5.30
2022-08-09T14:03:02.159Z,5.30
2022-08-09T14:06:00.089Z,5.13
2022-08-09T14:08:18.257Z,5.15
2022-08-09T14:10:52.424Z,4.57
2022-08-09T14:14:15.945Z,8.05
2022-08-09T14:16:15.867Z,11.00
2022-08-09T14:18:49.471Z,3.53
2022-08-09T14:21:37.865Z,3.35
2022-08-09T14:24:18.284Z,6.68
2022-08-09T14:26:51.173Z,4.30
2022-08-09T14:30:15.156Z,10.52
2022-08-09T14:32:13.091Z,13.65
2022-08-09T14:34:43.699Z,4.70
2022-08-09T14:37:12.463Z,8.85
2022-08-09T14:39:46.671Z,7.82
2022-08-09T14:42:30.166Z,8.90
2022-08-09T14:46:38.826Z,9.98
2022-08-09T14:47:57.138Z,7.90
2022-08-09T14:50:27.923Z,7.22
2022-08-09T14:52:56.849Z,6.03
2022-08-09T14:55:25.345Z,4.90
2022-08-09T14:57:56.758Z,7.97
2022-08-09T15:00:25.161Z,7.80
2022-08-09T15:02:58.328Z,14.45
2022-08-09T15:05:29.598Z,6.22
2022-08-09T15:07:58.409Z,12.77
2022-08-09T15:10:26.981Z,9.80
2022-08-09T15:12:55.817Z,7.78
2022-08-09T15:15:24.292Z,8.73
2022-08-09T15:17:56.847Z,4.60
2022-08-09T15:21:57.605Z,7.20
2022-08-09T15:24:00.707Z,9.55
2022-08-09T15:26:02.257Z,5.57
2022-08-09T15:28:33.209Z,6.40
2022-08-09T15:31:13.335Z,8.45
2022-08-09T15:34:17.738Z,6.60
2022-08-09T15:36:33.141Z,3.13
2022-08-09T15:39:01.019Z,4.45
2022-08-09T15:41:31.586Z,8.48
2022-08-09T15:44:01.822Z,9.15
2022-08-09T15:46:33.165Z,6.88
2022-08-09T15:49:21.742Z,8.10
2022-08-09T15:52:03.943Z,10.10
2022-08-09T15:54:49.492Z,10.93
2022-08-09T15:57:18.985Z,3.20
2022-08-09T16:00:07.919Z,3.40
2022-08-09T16:02:35.378Z,4.88
2022-08-09T16:05:04.423Z,4.35
2022-08-09T16:07:39.487Z,5.72
2022-08-09T16:10:17.328Z,8.57
2022-08-09T16:13:02.457Z,6.70
2022-08-09T16:16:11.421Z,3.88
2022-08-09T16:18:18.189Z,5.70
2022-08-09T16:20:46.697Z,8.15
2022-08-09T16:23:14.151Z,5.10
2022-08-09T16:25:42.262Z,9.00
2022-08-09T16:28:17.285Z,6.82
2022-08-09T16:30:54.134Z,6.88
2022-08-09T16:33:27.473Z,5.78
2022-08-09T16:36:03.080Z,9.40
2022-08-09T16:38:36.055Z,5.38
2022-08-09T16:41:04.492Z,4.53
2022-08-09T16:43:40.591Z,7.63
2022-08-09T16:46:12.416Z,3.40
2022-08-09T16:48:55.958Z,8.95
2022-08-09T16:51:29.365Z,5.38
2022-08-09T16:54:25.840Z,9.77
2022-08-09T16:56:49.069Z,5.05
2022-08-09T16:59:17.243Z,4.30
2022-08-09T17:01:51.095Z,5.47
2022-08-09T17:04:28.037Z,6.10
2022-08-09T17:08:41.282Z,4.90
2022-08-09T17:09:47.492Z,7.53
2022-08-09T17:12:16.182Z,5.03
2022-08-09T17:14:49.121Z,6.32
2022-08-09T17:17:27.223Z,12.93
2022-08-09T17:20:28.318Z,11.60
2022-08-09T17:22:51.972Z,10.02
2022-08-09T17:25:30.387Z,8.32
2022-08-09T17:28:03.460Z,8.18
2022-08-09T17:30:31.767Z,9.20
2022-08-09T17:33:22.611Z,7.07
2022-08-09T17:35:50.701Z,5.82
2022-08-09T17:38:32.061Z,6.18
2022-08-09T17:41:02.854Z,11.73
2022-08-09T17:43:37.433Z,7.47
2022-08-09T17:46:09.429Z,6.63
2022-08-09T17:48:52.001Z,5.07
2022-08-09T17:51:20.920Z,8.88
2022-08-09T17:53:54.713Z,5.45
2022-08-09T17:56:26.591Z,4.45
2022-08-09T17:59:02.939Z,8.32
2022-08-09T18:02:03.380Z,5.88
2022-08-09T18:04:20.707Z,4.00
2022-08-09T18:06:54.947Z,7.78
2022-08-09T18:09:44.244Z,10.73
2022-08-09T18:13:38.292Z,5.25
2022-08-09T18:22:33.954Z,8.80
2022-08-09T18:25:01.775Z,7.95
2022-08-09T18:28:02.103Z,9.65
2022-08-09T18:30:39.329Z,7.40
2022-08-09T18:33:05.199Z,8.38
2022-08-09T18:35:58.176Z,11.93
2022-08-09T18:38:26.972Z,9.30
2022-08-09T18:40:55.796Z,11.75
2022-08-09T18:43:25.256Z,13.85
2022-08-09T18:46:51.369Z,9.90
2022-08-09T18:48:42.361Z,9.35
2022-08-09T18:51:10.181Z,7.75
2022-08-09T18:53:59.826Z,6.07
2022-08-09T18:56:28.549Z,4.50
2022-08-09T18:58:57.847Z,8.13
2022-08-09T19:01:32.205Z,7.68
2022-08-09T19:04:13.256Z,6.93
2022-08-09T19:06:48.857Z,8.32
2022-08-09T19:09:34.188Z,10.02
2022-08-09T19:12:09.314Z,11.93
2022-08-09T19:14:38.053Z,6.63
2022-08-09T19:17:05.621Z,6.28
2022-08-09T19:19:41.682Z,3.97
2022-08-09T19:22:09.488Z,6.68
2022-08-09T19:25:11.937Z,6.57
2022-08-09T19:27:28.745Z,9.00
2022-08-09T19:30:22.636Z,9.73
2022-08-09T19:32:44.882Z,6.38
2022-08-09T19:35:13.937Z,9.40
2022-08-09T19:37:54.831Z,7.97
2022-08-09T19:40:34.498Z,8.38
2022-08-09T19:43:05.436Z,10.75
2022-08-09T19:45:40.332Z,11.57
2022-08-09T19:48:10.935Z,8.80
2022-08-09T19:50:49.315Z,6.65
2022-08-09T19:53:20.623Z,6.63
2022-08-09T19:56:02.106Z,11.98
2022-08-09T19:58:34.311Z,8.60
2022-08-09T20:01:05.815Z,6.63
2022-08-09T20:04:36.822Z,7.97
2022-08-09T20:07:58.600Z,4.15
2022-08-09T20:10:38.486Z,9.40
2022-08-09T20:13:20.186Z,6.28
2022-08-09T20:16:35.105Z,6.90
2022-08-09T20:19:04.010Z,9.13
2022-08-09T20:25:02.592Z,4.65
2022-08-09T20:27:46.519Z,6.13
2022-08-09T20:30:32.046Z,4.80
2022-08-09T20:33:16.544Z,3.75
2022-08-09T20:35:59.114Z,6.60
2022-08-09T20:39:28.169Z,6.07
2022-08-09T20:41:49.579Z,4.20
2022-08-09T20:44:36.160Z,10.55
2022-08-09T20:47:45.261Z,6.40
2022-08-09T20:50:48.100Z,6.57
2022-08-09T20:53:18.762Z,10.02
2022-08-09T20:56:02.050Z,6.20
2022-08-09T20:58:32.901Z,8.02
2022-08-09T21:01:33.719Z,7.38
2022-08-09T21:04:14.138Z,6.28
2022-08-09T21:06:45.206Z,8.65
2022-08-09T21:09:14.055Z,5.32
2022-08-09T21:14:31.247Z,5.55
2022-08-09T21:17:00.010Z,7.47
2022-08-09T21:20:18.832Z,5.90
2022-08-09T21:22:36.287Z,11.93
2022-08-09T21:25:21.334Z,10.57
2022-08-09T21:27:52.995Z,8.10
2022-08-09T21:30:22.135Z,12.35
2022-08-09T21:48:52.888Z,7.57
2022-08-09T21:51:35.723Z,7.18
2022-08-09T21:54:03.802Z,7.97
2022-08-09T21:56:43.012Z,6.45
2022-08-09T21:59:19.122Z,6.10
2022-08-09T22:02:00.476Z,12.15
2022-08-09T22:04:55.206Z,11.07
2022-08-09T22:07:23.280Z,11.45
2022-08-09T22:10:04.787Z,5.35
2022-08-09T22:12:32.637Z,8.15
2022-08-09T22:15:00.942Z,6.00
2022-08-09T22:17:32.103Z,6.32
2022-08-09T22:20:02.660Z,8.10
2022-08-09T22:22:31.372Z,5.68
2022-08-09T22:26:06.843Z,12.88
2022-08-09T22:27:49.517Z,13.32
2022-08-09T22:30:26.373Z,7.57
2022-08-09T22:33:01.650Z,10.60
2022-08-09T22:36:01.219Z,7.38
2022-08-09T22:38:19.644Z,13.02
2022-08-09T22:40:49.081Z,9.35
2022-08-09T22:44:03.319Z,6.15
2022-08-09T22:48:13.130Z,11.23
2022-08-09T22:49:09.682Z,6.50
2022-08-09T22:51:39.592Z,7.70
2022-08-09T22:54:21.270Z,6.53
2022-08-09T22:56:50.784Z,11.88
2022-08-09T22:59:56.932Z,9.52
2022-08-09T23:02:11.250Z,9.45
2022-08-09T23:04:53.863Z,8.32
2022-08-09T23:08:27.284Z,13.07
2022-08-09T23:10:32.704Z,6.25
2022-08-09T23:13:03.699Z,8.80
2022-08-09T23:15:31.270Z,13.57
2022-08-09T23:17:58.758Z,8.30
2022-08-09T23:20:29.193Z,11.18
2022-08-09T23:22:56.689Z,12.82
2022-08-09T23:25:24.187Z,9.25
2022-08-09T23:28:14.497Z,5.47
2022-08-09T23:30:51.315Z,5.43
2022-08-09T23:33:23.332Z,7.93
2022-08-09T23:36:06.456Z,5.97
2022-08-09T23:38:48.956Z,8.98
2022-08-09T23:41:28.443Z,9.32
2022-08-09T23:43:58.879Z,6.25
2022-08-09T23:46:27.560Z,9.20
2022-08-09T23:48:55.742Z,9.38
2022-08-09T23:51:23.397Z,8.00
2022-08-09T23:53:52.535Z,10.05
2022-08-09T23:56:53.520Z,13.10
2022-08-09T23:59:08.951Z,5.55
